Skip Navigation LinksHome page > Weather > Current weather Skip Navigation Links

Current Weather

Cherry Capital, Traverse City, Mich.

For information only: do not use for flight planning or navigation.
Latest weather
Observation time Thursday, November 14, 2019 7:53 PM EST
Local time Thursday, November 14, 2019 8:08 PM EST
Flight conditions Marginal Visual Meteorological Conditions
Winds
Wind direction Southwest (230°)
Wind speed 17 mph
Wind gusting to 26 mph
Visibility 10 mi.
Sky condition
Ceiling 2,400 ft. broken clouds
Cloud layer broken clouds 2,400 ft.
Temperature 30°F
Dewpoint 22°F
Altimeter 30.09 in.Hg
Derived measurements
Relative humidity 71%
Wind chill 18°F
Density altitude -1479 ft.
Sea-level pressure 30.11 in.Hg
Remarks
Automated weather observing station with precipitation discriminator.
METAR KTVC 150053Z 23015G23KT 10SM BKN024 M01/M06 A3009 RMK AO2 SLP197 T10111056

Settings

Location code

InnerDrive.Weather 4.0.6770.0 Release CLR 4.0.30319.42000
Copyright ©2018 Inner Drive Technology. All rights reserved. Portions Copyright ©1986-2018 David Braverman.

Find weather

Site navigation


Skip Navigation Links

Place info

Page info

PayPal - The safer, easier way to pay online!

Return home.

Copyright ©2019 Inner Drive Technology. Purveyors of fine, hand-crafted computer software. Page printed 2019-11-15T01:08:20 UTC.